sensor_id;sensor_type;location;lat;lon;timestamp;pressure;altitude;pressure_sealevel;temperature;humidity
21361;BME280;10839;43.206;23.550;2023-02-20T00:01:15;97409.69;;;13.65;50.27
21361;BME280;10839;43.206;23.550;2023-02-20T00:03:41;97417.78;;;13.52;50.57
21361;BME280;10839;43.206;23.550;2023-02-20T00:06:07;97423.00;;;13.60;49.99
21361;BME280;10839;43.206;23.550;2023-02-20T00:08:33;97433.81;;;13.60;50.02
21361;BME280;10839;43.206;23.550;2023-02-20T00:10:58;97432.53;;;13.49;49.88
21361;BME280;10839;43.206;23.550;2023-02-20T00:13:24;97432.16;;;13.59;49.59
21361;BME280;10839;43.206;23.550;2023-02-20T00:15:50;97439.63;;;13.57;49.82
21361;BME280;10839;43.206;23.550;2023-02-20T00:18:16;97435.84;;;13.32;49.97
21361;BME280;10839;43.206;23.550;2023-02-20T00:20:42;97419.44;;;13.33;50.19
21361;BME280;10839;43.206;23.550;2023-02-20T00:23:08;97436.25;;;13.29;50.23
21361;BME280;10839;43.206;23.550;2023-02-20T00:25:34;97435.00;;;13.25;50.59
21361;BME280;10839;43.206;23.550;2023-02-20T00:28:00;97437.75;;;12.84;51.75
21361;BME280;10839;43.206;23.550;2023-02-20T00:30:26;97433.31;;;13.11;51.27
21361;BME280;10839;43.206;23.550;2023-02-20T00:32:53;97432.91;;;13.20;51.24
21361;BME280;10839;43.206;23.550;2023-02-20T00:35:20;97429.00;;;12.75;52.42
21361;BME280;10839;43.206;23.550;2023-02-20T00:37:47;97433.91;;;13.06;52.23
21361;BME280;10839;43.206;23.550;2023-02-20T00:40:15;97442.81;;;13.00;52.67
21361;BME280;10839;43.206;23.550;2023-02-20T00:42:41;97446.84;;;12.70;53.70
21361;BME280;10839;43.206;23.550;2023-02-20T00:45:09;97435.22;;;12.76;54.17
21361;BME280;10839;43.206;23.550;2023-02-20T00:47:36;97433.59;;;12.81;54.22
21361;BME280;10839;43.206;23.550;2023-02-20T00:50:03;97432.66;;;12.61;54.52
21361;BME280;10839;43.206;23.550;2023-02-20T00:52:30;97446.34;;;12.53;55.19
21361;BME280;10839;43.206;23.550;2023-02-20T00:54:55;97440.59;;;12.69;54.98
21361;BME280;10839;43.206;23.550;2023-02-20T00:57:21;97443.88;;;12.58;55.39
21361;BME280;10839;43.206;23.550;2023-02-20T00:59:47;97436.72;;;12.44;55.91
21361;BME280;10839;43.206;23.550;2023-02-20T01:02:13;97436.00;;;12.63;55.66
21361;BME280;10839;43.206;23.550;2023-02-20T01:04:40;97441.75;;;12.47;56.47
21361;BME280;10839;43.206;23.550;2023-02-20T01:07:08;97442.44;;;12.28;57.91
21361;BME280;10839;43.206;23.550;2023-02-20T01:09:34;97436.50;;;12.39;58.03
21361;BME280;10839;43.206;23.550;2023-02-20T01:12:00;97437.47;;;12.25;58.36
21361;BME280;10839;43.206;23.550;2023-02-20T01:14:26;97445.31;;;12.20;58.98
21361;BME280;10839;43.206;23.550;2023-02-20T01:16:52;97448.31;;;12.38;58.43
21361;BME280;10839;43.206;23.550;2023-02-20T01:19:21;97438.31;;;12.26;58.54
21361;BME280;10839;43.206;23.550;2023-02-20T01:21:47;97442.31;;;12.09;59.20
21361;BME280;10839;43.206;23.550;2023-02-20T01:24:16;97458.25;;;12.31;59.07
21361;BME280;10839;43.206;23.550;2023-02-20T01:26:44;97456.00;;;12.07;60.68
21361;BME280;10839;43.206;23.550;2023-02-20T01:29:12;97445.56;;;11.70;62.49
21361;BME280;10839;43.206;23.550;2023-02-20T01:31:38;97456.28;;;11.91;62.24
21361;BME280;10839;43.206;23.550;2023-02-20T01:34:07;97446.06;;;11.80;62.21
21361;BME280;10839;43.206;23.550;2023-02-20T01:36:33;97451.91;;;11.63;62.11
21361;BME280;10839;43.206;23.550;2023-02-20T01:39:01;97446.00;;;12.01;60.38
21361;BME280;10839;43.206;23.550;2023-02-20T01:41:26;97450.88;;;12.12;58.62
21361;BME280;10839;43.206;23.550;2023-02-20T01:43:52;97445.94;;;11.95;58.77
21361;BME280;10839;43.206;23.550;2023-02-20T01:49:05;97447.69;;;12.02;57.94
21361;BME280;10839;43.206;23.550;2023-02-20T01:51:36;97451.13;;;11.96;57.36
21361;BME280;10839;43.206;23.550;2023-02-20T01:54:07;97452.63;;;11.99;57.76
21361;BME280;10839;43.206;23.550;2023-02-20T01:56:34;97465.63;;;11.89;58.55
21361;BME280;10839;43.206;23.550;2023-02-20T01:59:03;97475.66;;;11.74;59.44
21361;BME280;10839;43.206;23.550;2023-02-20T02:01:32;97486.00;;;11.70;59.66
21361;BME280;10839;43.206;23.550;2023-02-20T02:04:01;97482.19;;;11.86;59.66
21361;BME280;10839;43.206;23.550;2023-02-20T02:06:30;97491.78;;;11.67;60.87
21361;BME280;10839;43.206;23.550;2023-02-20T02:09:02;97506.63;;;11.63;60.86
21361;BME280;10839;43.206;23.550;2023-02-20T02:11:32;97501.88;;;11.86;59.46
21361;BME280;10839;43.206;23.550;2023-02-20T02:14:03;97499.97;;;11.80;59.43
21361;BME280;10839;43.206;23.550;2023-02-20T02:16:51;97495.50;;;11.66;60.31
21361;BME280;10839;43.206;23.550;2023-02-20T02:19:40;97508.41;;;11.98;58.04
21361;BME280;10839;43.206;23.550;2023-02-20T02:36:15;97483.69;;;11.95;56.78
21361;BME280;10839;43.206;23.550;2023-02-20T02:41:45;97480.44;;;11.99;56.35
21361;BME280;10839;43.206;23.550;2023-02-20T02:47:32;97486.00;;;11.70;56.47
21361;BME280;10839;43.206;23.550;2023-02-20T02:50:31;97499.94;;;12.01;54.70
21361;BME280;10839;43.206;23.550;2023-02-20T02:53:00;97506.50;;;11.92;54.40
21361;BME280;10839;43.206;23.550;2023-02-20T02:55:29;97489.97;;;11.74;54.31
21361;BME280;10839;43.206;23.550;2023-02-20T02:57:55;97494.88;;;11.92;53.98
21361;BME280;10839;43.206;23.550;2023-02-20T03:00:36;97484.66;;;12.08;53.46
21361;BME280;10839;43.206;23.550;2023-02-20T03:03:20;97482.69;;;11.75;54.06
21361;BME280;10839;43.206;23.550;2023-02-20T03:11:19;97477.09;;;11.76;53.28
21361;BME280;10839;43.206;23.550;2023-02-20T03:20:07;97483.13;;;11.99;51.37
21361;BME280;10839;43.206;23.550;2023-02-20T03:22:41;97490.72;;;11.89;51.30
21361;BME280;10839;43.206;23.550;2023-02-20T03:25:44;97481.84;;;11.68;51.36
21361;BME280;10839;43.206;23.550;2023-02-20T03:28:21;97491.44;;;11.98;50.37
21361;BME280;10839;43.206;23.550;2023-02-20T03:31:12;97478.84;;;12.11;49.06
21361;BME280;10839;43.206;23.550;2023-02-20T03:33:45;97460.81;;;11.84;48.86
21361;BME280;10839;43.206;23.550;2023-02-20T03:36:42;97481.03;;;12.22;44.18
21361;BME280;10839;43.206;23.550;2023-02-20T03:39:32;97494.75;;;12.27;45.29
21361;BME280;10839;43.206;23.550;2023-02-20T03:42:20;97485.09;;;12.12;45.33
21361;BME280;10839;43.206;23.550;2023-02-20T03:45:14;97489.38;;;12.27;44.57
21361;BME280;10839;43.206;23.550;2023-02-20T03:47:44;97495.44;;;12.08;45.16
21361;BME280;10839;43.206;23.550;2023-02-20T03:50:14;97503.53;;;12.08;45.38
21361;BME280;10839;43.206;23.550;2023-02-20T03:52:41;97503.09;;;12.32;44.59
21361;BME280;10839;43.206;23.550;2023-02-20T03:55:07;97496.81;;;12.25;44.35
21361;BME280;10839;43.206;23.550;2023-02-20T03:57:39;97503.28;;;12.03;44.80
21361;BME280;10839;43.206;23.550;2023-02-20T04:00:08;97515.94;;;12.30;44.55
21361;BME280;10839;43.206;23.550;2023-02-20T04:02:51;97518.41;;;12.25;44.42
21361;BME280;10839;43.206;23.550;2023-02-20T04:05:27;97510.59;;;12.09;45.15
21361;BME280;10839;43.206;23.550;2023-02-20T04:08:07;97523.31;;;12.15;45.05
21361;BME280;10839;43.206;23.550;2023-02-20T04:10:43;97525.25;;;12.00;45.13
21361;BME280;10839;43.206;23.550;2023-02-20T04:13:12;97515.09;;;11.81;45.67
21361;BME280;10839;43.206;23.550;2023-02-20T04:15:43;97508.28;;;12.06;45.14
21361;BME280;10839;43.206;23.550;2023-02-20T04:18:13;97521.16;;;12.04;45.20
21361;BME280;10839;43.206;23.550;2023-02-20T04:20:41;97519.75;;;11.66;46.42
21361;BME280;10839;43.206;23.550;2023-02-20T04:23:22;97517.56;;;11.76;46.13
21361;BME280;10839;43.206;23.550;2023-02-20T04:26:03;97523.91;;;11.90;45.78
21361;BME280;10839;43.206;23.550;2023-02-20T04:28:33;97517.34;;;11.56;46.88
21361;BME280;10839;43.206;23.550;2023-02-20T04:31:02;97509.66;;;11.75;46.19
21361;BME280;10839;43.206;23.550;2023-02-20T04:33:29;97510.75;;;11.80;46.12
21361;BME280;10839;43.206;23.550;2023-02-20T04:36:01;97514.97;;;11.47;47.31
21361;BME280;10839;43.206;23.550;2023-02-20T04:38:27;97516.13;;;11.59;46.99
21361;BME280;10839;43.206;23.550;2023-02-20T04:40:54;97518.97;;;11.72;46.41
21361;BME280;10839;43.206;23.550;2023-02-20T04:43:21;97526.31;;;11.42;46.81
21361;BME280;10839;43.206;23.550;2023-02-20T04:45:47;97521.13;;;11.62;46.49
21361;BME280;10839;43.206;23.550;2023-02-20T04:48:13;97512.50;;;11.67;46.17
21361;BME280;10839;43.206;23.550;2023-02-20T04:50:40;97521.75;;;11.43;47.16
21361;BME280;10839;43.206;23.550;2023-02-20T04:53:07;97529.94;;;11.35;47.96
21361;BME280;10839;43.206;23.550;2023-02-20T04:55:33;97512.25;;;11.26;48.04
21361;BME280;10839;43.206;23.550;2023-02-20T04:58:05;97527.75;;;11.24;48.30
21361;BME280;10839;43.206;23.550;2023-02-20T05:00:45;97535.34;;;11.35;48.89
21361;BME280;10839;43.206;23.550;2023-02-20T05:03:11;97532.63;;;11.14;49.36
21361;BME280;10839;43.206;23.550;2023-02-20T05:05:37;97545.00;;;10.94;50.42
21361;BME280;10839;43.206;23.550;2023-02-20T05:08:05;97544.34;;;10.92;50.77
21361;BME280;10839;43.206;23.550;2023-02-20T05:10:32;97539.88;;;10.99;50.72
21361;BME280;10839;43.206;23.550;2023-02-20T05:12:59;97541.00;;;10.90;50.40
21361;BME280;10839;43.206;23.550;2023-02-20T05:15:27;97561.25;;;10.86;51.08
21361;BME280;10839;43.206;23.550;2023-02-20T05:17:53;97551.19;;;11.09;50.28
21361;BME280;10839;43.206;23.550;2023-02-20T05:20:20;97557.34;;;11.03;50.81
21361;BME280;10839;43.206;23.550;2023-02-20T05:22:46;97565.25;;;10.61;52.08
21361;BME280;10839;43.206;23.550;2023-02-20T05:25:14;97573.31;;;10.90;51.49
21361;BME280;10839;43.206;23.550;2023-02-20T05:27:40;97581.47;;;11.11;51.26
21361;BME280;10839;43.206;23.550;2023-02-20T05:30:08;97570.16;;;10.72;52.70
21361;BME280;10839;43.206;23.550;2023-02-20T05:32:34;97586.13;;;11.52;51.17
21361;BME280;10839;43.206;23.550;2023-02-20T05:35:00;97589.28;;;12.96;47.63
21361;BME280;10839;43.206;23.550;2023-02-20T05:37:27;97589.06;;;13.91;44.69
21361;BME280;10839;43.206;23.550;2023-02-20T05:39:53;97597.06;;;14.45;43.90
21361;BME280;10839;43.206;23.550;2023-02-20T05:42:19;97602.66;;;16.04;40.86
21361;BME280;10839;43.206;23.550;2023-02-20T05:44:47;97609.16;;;17.87;37.54
21361;BME280;10839;43.206;23.550;2023-02-20T05:47:14;97612.16;;;17.78;36.62
21361;BME280;10839;43.206;23.550;2023-02-20T05:49:40;97620.03;;;17.87;36.67
21361;BME280;10839;43.206;23.550;2023-02-20T05:52:06;97623.53;;;18.64;35.39
21361;BME280;10839;43.206;23.550;2023-02-20T05:54:39;97627.69;;;18.78;34.83
21361;BME280;10839;43.206;23.550;2023-02-20T05:57:05;97640.84;;;17.63;34.82
21361;BME280;10839;43.206;23.550;2023-02-20T05:59:31;97635.16;;;16.79;35.56
21361;BME280;10839;43.206;23.550;2023-02-20T06:01:58;97644.69;;;15.95;37.15
21361;BME280;10839;43.206;23.550;2023-02-20T06:04:25;97631.72;;;17.15;33.71
21361;BME280;10839;43.206;23.550;2023-02-20T06:06:51;97634.44;;;18.35;31.94
21361;BME280;10839;43.206;23.550;2023-02-20T06:09:17;97634.72;;;17.49;32.13
21361;BME280;10839;43.206;23.550;2023-02-20T06:11:54;97636.03;;;17.22;31.08
21361;BME280;10839;43.206;23.550;2023-02-20T06:14:22;97632.78;;;16.65;31.01
21361;BME280;10839;43.206;23.550;2023-02-20T06:16:48;97635.03;;;17.59;28.92
21361;BME280;10839;43.206;23.550;2023-02-20T06:19:22;97631.50;;;17.34;28.83
21361;BME280;10839;43.206;23.550;2023-02-20T06:21:51;97638.94;;;17.45;27.19
21361;BME280;10839;43.206;23.550;2023-02-20T06:24:18;97624.28;;;18.83;24.57
21361;BME280;10839;43.206;23.550;2023-02-20T06:26:45;97625.78;;;19.71;22.36
21361;BME280;10839;43.206;23.550;2023-02-20T06:29:12;97629.50;;;18.96;22.60
21361;BME280;10839;43.206;23.550;2023-02-20T06:31:38;97643.19;;;19.42;21.63
21361;BME280;10839;43.206;23.550;2023-02-20T06:34:06;97643.44;;;21.04;19.98
21361;BME280;10839;43.206;23.550;2023-02-20T06:36:35;97645.69;;;21.62;19.76
21361;BME280;10839;43.206;23.550;2023-02-20T06:39:03;97637.78;;;22.04;18.42
21361;BME280;10839;43.206;23.550;2023-02-20T06:41:29;97646.00;;;22.25;17.80
21361;BME280;10839;43.206;23.550;2023-02-20T06:43:55;97643.44;;;22.94;17.24
21361;BME280;10839;43.206;23.550;2023-02-20T06:54:13;97650.84;;;19.80;18.39
21361;BME280;10839;43.206;23.550;2023-02-20T06:56:58;97654.09;;;19.42;18.43
21361;BME280;10839;43.206;23.550;2023-02-20T06:59:58;97661.34;;;20.22;18.06
21361;BME280;10839;43.206;23.550;2023-02-20T07:02:24;97653.81;;;19.78;18.20
21361;BME280;10839;43.206;23.550;2023-02-20T07:04:49;97657.78;;;20.10;17.75
21361;BME280;10839;43.206;23.550;2023-02-20T07:07:16;97663.41;;;20.60;17.72
21361;BME280;10839;43.206;23.550;2023-02-20T07:09:41;97666.56;;;21.30;16.97
21361;BME280;10839;43.206;23.550;2023-02-20T07:12:07;97657.09;;;22.89;16.22
21361;BME280;10839;43.206;23.550;2023-02-20T07:14:33;97656.22;;;23.88;15.73
21361;BME280;10839;43.206;23.550;2023-02-20T07:16:59;97655.31;;;24.24;14.97
21361;BME280;10839;43.206;23.550;2023-02-20T07:19:25;97657.44;;;25.29;13.79
21361;BME280;10839;43.206;23.550;2023-02-20T07:21:51;97668.41;;;26.09;13.34
21361;BME280;10839;43.206;23.550;2023-02-20T07:24:17;97651.66;;;25.10;13.86
21361;BME280;10839;43.206;23.550;2023-02-20T07:26:43;97649.28;;;24.27;13.66
21361;BME280;10839;43.206;23.550;2023-02-20T07:29:11;97652.53;;;22.99;13.65
21361;BME280;10839;43.206;23.550;2023-02-20T07:31:37;97655.56;;;21.63;13.74
21361;BME280;10839;43.206;23.550;2023-02-20T07:34:03;97662.19;;;20.40;14.69
21361;BME280;10839;43.206;23.550;2023-02-20T07:36:35;97678.28;;;19.73;14.61
21361;BME280;10839;43.206;23.550;2023-02-20T07:39:02;97682.06;;;19.03;15.02
21361;BME280;10839;43.206;23.550;2023-02-20T07:41:30;97684.50;;;18.22;15.63
21361;BME280;10839;43.206;23.550;2023-02-20T07:43:57;97693.63;;;17.98;15.89
21361;BME280;10839;43.206;23.550;2023-02-20T07:46:23;97692.19;;;17.35;16.34
21361;BME280;10839;43.206;23.550;2023-02-20T07:48:49;97700.25;;;17.23;16.91
21361;BME280;10839;43.206;23.550;2023-02-20T07:51:15;97700.69;;;17.20;17.28
21361;BME280;10839;43.206;23.550;2023-02-20T07:53:49;97697.84;;;16.84;17.19
21361;BME280;10839;43.206;23.550;2023-02-20T07:56:15;97711.50;;;17.02;17.23
21361;BME280;10839;43.206;23.550;2023-02-20T07:58:41;97704.63;;;17.24;16.98
21361;BME280;10839;43.206;23.550;2023-02-20T08:01:07;97714.09;;;18.01;16.86
21361;BME280;10839;43.206;23.550;2023-02-20T08:03:33;97709.41;;;19.49;16.25
21361;BME280;10839;43.206;23.550;2023-02-20T08:05:59;97707.28;;;19.51;15.64
21361;BME280;10839;43.206;23.550;2023-02-20T08:08:25;97714.38;;;19.75;15.61
21361;BME280;10839;43.206;23.550;2023-02-20T08:10:51;97709.06;;;20.31;15.93
21361;BME280;10839;43.206;23.550;2023-02-20T08:13:17;97738.16;;;21.72;14.89
21361;BME280;10839;43.206;23.550;2023-02-20T08:15:44;97725.56;;;21.54;14.71
21361;BME280;10839;43.206;23.550;2023-02-20T08:18:10;97724.16;;;22.06;14.18
21361;BME280;10839;43.206;23.550;2023-02-20T08:20:36;97730.13;;;22.90;14.09
21361;BME280;10839;43.206;23.550;2023-02-20T08:23:02;97734.63;;;22.52;14.33
21361;BME280;10839;43.206;23.550;2023-02-20T08:25:30;97737.88;;;22.98;14.19
21361;BME280;10839;43.206;23.550;2023-02-20T08:27:57;97734.19;;;23.35;13.86
21361;BME280;10839;43.206;23.550;2023-02-20T08:30:26;97740.16;;;23.59;13.54
21361;BME280;10839;43.206;23.550;2023-02-20T08:32:53;97752.41;;;23.20;13.99
21361;BME280;10839;43.206;23.550;2023-02-20T08:35:20;97756.34;;;23.92;13.63
21361;BME280;10839;43.206;23.550;2023-02-20T08:37:46;97761.31;;;23.58;13.89
21361;BME280;10839;43.206;23.550;2023-02-20T08:40:12;97749.41;;;22.95;14.27
21361;BME280;10839;43.206;23.550;2023-02-20T08:42:38;97760.38;;;22.95;14.16
21361;BME280;10839;43.206;23.550;2023-02-20T08:45:06;97754.88;;;23.48;13.99
21361;BME280;10839;43.206;23.550;2023-02-20T08:47:33;97751.22;;;22.62;14.47
21361;BME280;10839;43.206;23.550;2023-02-20T08:49:59;97783.19;;;23.22;14.29
21361;BME280;10839;43.206;23.550;2023-02-20T08:52:25;97782.09;;;22.74;14.51
21361;BME280;10839;43.206;23.550;2023-02-20T08:54:50;97785.31;;;23.15;14.64
21361;BME280;10839;43.206;23.550;2023-02-20T08:57:17;97766.19;;;23.25;14.59
21361;BME280;10839;43.206;23.550;2023-02-20T08:59:44;97769.19;;;23.50;14.22
21361;BME280;10839;43.206;23.550;2023-02-20T09:02:22;97775.16;;;22.07;15.12
21361;BME280;10839;43.206;23.550;2023-02-20T09:04:55;97782.28;;;22.90;14.96
21361;BME280;10839;43.206;23.550;2023-02-20T09:07:22;97782.09;;;23.23;14.60
21361;BME280;10839;43.206;23.550;2023-02-20T09:09:48;97781.47;;;23.42;14.55
21361;BME280;10839;43.206;23.550;2023-02-20T09:12:15;97785.78;;;23.60;14.81
21361;BME280;10839;43.206;23.550;2023-02-20T09:14:41;97795.75;;;23.18;14.98
21361;BME280;10839;43.206;23.550;2023-02-20T09:17:07;97788.91;;;22.29;15.41
21361;BME280;10839;43.206;23.550;2023-02-20T09:19:33;97791.91;;;23.14;15.12
21361;BME280;10839;43.206;23.550;2023-02-20T09:22:00;97795.00;;;23.22;15.24
21361;BME280;10839;43.206;23.550;2023-02-20T09:24:26;97769.13;;;23.76;15.14
21361;BME280;10839;43.206;23.550;2023-02-20T09:26:59;97771.09;;;23.23;15.24
21361;BME280;10839;43.206;23.550;2023-02-20T09:29:26;97772.00;;;23.02;15.55
21361;BME280;10839;43.206;23.550;2023-02-20T09:31:52;97755.09;;;23.41;15.45
21361;BME280;10839;43.206;23.550;2023-02-20T09:34:18;97770.66;;;23.31;15.43
21361;BME280;10839;43.206;23.550;2023-02-20T09:36:45;97765.56;;;23.44;15.22
21361;BME280;10839;43.206;23.550;2023-02-20T09:39:11;97769.81;;;23.04;14.82
21361;BME280;10839;43.206;23.550;2023-02-20T09:44:17;97762.53;;;23.19;15.48
21361;BME280;10839;43.206;23.550;2023-02-20T09:46:48;97764.22;;;23.20;15.57
21361;BME280;10839;43.206;23.550;2023-02-20T09:49:21;97774.16;;;23.00;14.94
21361;BME280;10839;43.206;23.550;2023-02-20T09:52:00;97778.91;;;22.61;15.10
21361;BME280;10839;43.206;23.550;2023-02-20T09:54:33;97777.38;;;22.48;15.03
21361;BME280;10839;43.206;23.550;2023-02-20T09:57:01;97785.03;;;22.90;14.94
21361;BME280;10839;43.206;23.550;2023-02-20T09:59:43;97770.31;;;22.74;15.13
21361;BME280;10839;43.206;23.550;2023-02-20T10:02:43;97777.03;;;22.45;14.77
21361;BME280;10839;43.206;23.550;2023-02-20T10:05:20;97764.69;;;22.04;14.97
21361;BME280;10839;43.206;23.550;2023-02-20T10:07:49;97770.41;;;22.41;14.49
21361;BME280;10839;43.206;23.550;2023-02-20T10:10:20;97784.34;;;22.56;14.44
21361;BME280;10839;43.206;23.550;2023-02-20T10:12:58;97763.13;;;22.30;14.81
21361;BME280;10839;43.206;23.550;2023-02-20T10:20:53;97789.34;;;22.04;15.47
21361;BME280;10839;43.206;23.550;2023-02-20T10:26:07;97782.75;;;21.34;14.96
21361;BME280;10839;43.206;23.550;2023-02-20T10:28:35;97777.75;;;21.31;15.37
21361;BME280;10839;43.206;23.550;2023-02-20T10:36:46;97777.34;;;21.39;15.59
21361;BME280;10839;43.206;23.550;2023-02-20T10:39:16;97768.13;;;21.28;15.71
21361;BME280;10839;43.206;23.550;2023-02-20T10:44:26;97767.38;;;21.33;15.76
21361;BME280;10839;43.206;23.550;2023-02-20T10:47:15;97754.59;;;21.55;15.61
21361;BME280;10839;43.206;23.550;2023-02-20T10:52:26;97762.56;;;21.73;15.93
21361;BME280;10839;43.206;23.550;2023-02-20T10:54:59;97764.75;;;22.09;16.23
21361;BME280;10839;43.206;23.550;2023-02-20T10:57:38;97750.59;;;20.85;16.19
21361;BME280;10839;43.206;23.550;2023-02-20T11:00:31;97742.28;;;20.80;16.66
21361;BME280;10839;43.206;23.550;2023-02-20T11:03:23;97759.81;;;21.40;16.57
21361;BME280;10839;43.206;23.550;2023-02-20T11:05:53;97750.75;;;21.23;16.72
21361;BME280;10839;43.206;23.550;2023-02-20T11:08:20;97750.31;;;20.98;16.73
21361;BME280;10839;43.206;23.550;2023-02-20T11:10:47;97766.13;;;20.96;16.81
21361;BME280;10839;43.206;23.550;2023-02-20T11:13:18;97741.03;;;20.99;16.99
21361;BME280;10839;43.206;23.550;2023-02-20T11:15:47;97753.63;;;20.32;17.61
21361;BME280;10839;43.206;23.550;2023-02-20T11:18:34;97753.56;;;19.81;18.26
21361;BME280;10839;43.206;23.550;2023-02-20T11:21:03;97764.97;;;19.66;18.10
21361;BME280;10839;43.206;23.550;2023-02-20T11:23:33;97761.75;;;20.04;18.35
21361;BME280;10839;43.206;23.550;2023-02-20T11:31:35;97758.06;;;20.21;18.40
21361;BME280;10839;43.206;23.550;2023-02-20T11:34:04;97770.09;;;19.86;18.24
21361;BME280;10839;43.206;23.550;2023-02-20T11:36:37;97757.59;;;19.78;18.72
21361;BME280;10839;43.206;23.550;2023-02-20T11:39:18;97747.63;;;19.72;18.95
21361;BME280;10839;43.206;23.550;2023-02-20T11:41:47;97742.91;;;19.79;18.83
21361;BME280;10839;43.206;23.550;2023-02-20T11:44:21;97738.81;;;19.93;18.48
21361;BME280;10839;43.206;23.550;2023-02-20T11:49:44;97746.19;;;20.27;18.65
21361;BME280;10839;43.206;23.550;2023-02-20T11:52:21;97739.56;;;19.31;19.01
21361;BME280;10839;43.206;23.550;2023-02-20T11:55:18;97745.03;;;19.54;19.11
21361;BME280;10839;43.206;23.550;2023-02-20T11:57:46;97747.63;;;18.67;19.94
21361;BME280;10839;43.206;23.550;2023-02-20T12:00:17;97755.84;;;19.08;19.90
21361;BME280;10839;43.206;23.550;2023-02-20T12:05:18;97745.97;;;19.71;19.74
21361;BME280;10839;43.206;23.550;2023-02-20T12:10:34;97747.63;;;19.38;19.32
21361;BME280;10839;43.206;23.550;2023-02-20T12:13:03;97735.69;;;19.09;19.41
21361;BME280;10839;43.206;23.550;2023-02-20T12:15:30;97746.22;;;19.05;19.59
21361;BME280;10839;43.206;23.550;2023-02-20T12:20:30;97749.41;;;18.61;20.81
21361;BME280;10839;43.206;23.550;2023-02-20T12:25:54;97739.66;;;18.36;20.97
21361;BME280;10839;43.206;23.550;2023-02-20T12:28:34;97763.66;;;18.45;20.44
21361;BME280;10839;43.206;23.550;2023-02-20T12:31:25;97757.25;;;18.99;20.22
21361;BME280;10839;43.206;23.550;2023-02-20T12:36:35;97743.59;;;17.67;22.52
21361;BME280;10839;43.206;23.550;2023-02-20T12:53:27;97769.56;;;17.45;25.58
21361;BME280;10839;43.206;23.550;2023-02-20T13:01:12;97745.09;;;16.90;27.12
21361;BME280;10839;43.206;23.550;2023-02-20T13:03:59;97743.38;;;16.64;27.60
21361;BME280;10839;43.206;23.550;2023-02-20T13:11:25;97748.72;;;16.77;28.63
21361;BME280;10839;43.206;23.550;2023-02-20T13:21:29;97761.72;;;16.75;30.52
21361;BME280;10839;43.206;23.550;2023-02-20T13:29:33;97768.97;;;16.50;30.54
21361;BME280;10839;43.206;23.550;2023-02-20T13:32:00;97762.47;;;16.51;30.80
21361;BME280;10839;43.206;23.550;2023-02-20T13:34:44;97769.75;;;16.57;31.22
21361;BME280;10839;43.206;23.550;2023-02-20T13:37:53;97762.13;;;16.28;31.75
21361;BME280;10839;43.206;23.550;2023-02-20T13:53:58;97751.06;;;15.66;34.00
21361;BME280;10839;43.206;23.550;2023-02-20T13:56:48;97749.22;;;15.47;34.35
21361;BME280;10839;43.206;23.550;2023-02-20T13:59:19;97752.97;;;15.19;35.08
21361;BME280;10839;43.206;23.550;2023-02-20T14:04:35;97758.38;;;15.19;35.69
21361;BME280;10839;43.206;23.550;2023-02-20T14:07:01;97758.38;;;15.06;36.04
21361;BME280;10839;43.206;23.550;2023-02-20T14:09:28;97760.03;;;15.07;36.02
21361;BME280;10839;43.206;23.550;2023-02-20T14:12:04;97759.00;;;15.21;36.19
21361;BME280;10839;43.206;23.550;2023-02-20T14:14:36;97750.88;;;15.15;36.39
21361;BME280;10839;43.206;23.550;2023-02-20T14:17:23;97773.00;;;15.18;36.40
21361;BME280;10839;43.206;23.550;2023-02-20T14:19:56;97773.81;;;14.99;37.37
21361;BME280;10839;43.206;23.550;2023-02-20T14:22:27;97767.97;;;15.15;37.40
21361;BME280;10839;43.206;23.550;2023-02-20T14:25:08;97761.72;;;15.08;37.27
21361;BME280;10839;43.206;23.550;2023-02-20T14:27:40;97781.50;;;14.89;37.59
21361;BME280;10839;43.206;23.550;2023-02-20T14:30:11;97763.81;;;15.19;37.29
21361;BME280;10839;43.206;23.550;2023-02-20T14:32:45;97775.91;;;15.10;37.64
21361;BME280;10839;43.206;23.550;2023-02-20T14:38:12;97779.66;;;15.22;37.79
21361;BME280;10839;43.206;23.550;2023-02-20T14:40:42;97784.22;;;14.89;38.16
21361;BME280;10839;43.206;23.550;2023-02-20T14:43:22;97793.59;;;14.80;38.70
21361;BME280;10839;43.206;23.550;2023-02-20T14:46:01;97778.38;;;14.79;38.54
21361;BME280;10839;43.206;23.550;2023-02-20T14:48:37;97792.38;;;14.29;39.50
21361;BME280;10839;43.206;23.550;2023-02-20T14:51:16;97782.88;;;14.46;39.48
21361;BME280;10839;43.206;23.550;2023-02-20T14:53:44;97800.16;;;14.45;39.56
21361;BME280;10839;43.206;23.550;2023-02-20T14:56:13;97787.84;;;14.36;40.04
21361;BME280;10839;43.206;23.550;2023-02-20T14:58:39;97787.75;;;14.23;40.36
21361;BME280;10839;43.206;23.550;2023-02-20T15:01:35;97790.63;;;14.15;41.08
21361;BME280;10839;43.206;23.550;2023-02-20T15:04:11;97801.47;;;14.15;41.46
21361;BME280;10839;43.206;23.550;2023-02-20T15:06:39;97800.97;;;13.98;41.75
21361;BME280;10839;43.206;23.550;2023-02-20T15:09:07;97794.78;;;14.11;41.80
21361;BME280;10839;43.206;23.550;2023-02-20T15:11:35;97789.34;;;14.11;41.65
21361;BME280;10839;43.206;23.550;2023-02-20T15:14:17;97791.16;;;13.97;42.05
21361;BME280;10839;43.206;23.550;2023-02-20T15:16:44;97796.34;;;13.92;42.31
21361;BME280;10839;43.206;23.550;2023-02-20T15:19:31;97802.19;;;13.96;42.55
21361;BME280;10839;43.206;23.550;2023-02-20T15:21:58;97801.34;;;13.89;42.90
21361;BME280;10839;43.206;23.550;2023-02-20T15:26:50;97805.00;;;13.75;43.29
21361;BME280;10839;43.206;23.550;2023-02-20T15:29:22;97800.63;;;13.74;43.77
21361;BME280;10839;43.206;23.550;2023-02-20T15:34:37;97800.47;;;13.82;43.81
21361;BME280;10839;43.206;23.550;2023-02-20T15:37:31;97796.47;;;13.78;43.82